Nearby METAR Reports

 

KMTN - Baltimore/Martin, Maryland, USA
Distance from station: SSE 8mi, 13km
Updated: Mon, 02-Mar-2015 10:55am EST
Partly cloudy
Partly cloudy
 Wind from WNW
Wind: WNW 21 mph , 33 km/h, Gust: 29 mph , 46 km/h
Temperature: 39°F , 4°C
Wind Chill: 29°F , -2°C
Dew Point: 25°F , -4°C
Humidity: 56%
Barometer: 30.26 inHg , 1024.7 hPa
Clouds: Partly cloudy
Visibility: 10 miles , 16 km
Cloud details: Partly cloudy 5000 ft
2015/03/02 15:55 KMTN 021555Z 29018G25KT 10SM SCT050 04/M04 A3026
KDMH - Baltimore/Dwntwn, Maryland, USA
Distance from station: SW 12mi, 19km
Updated: Mon, 02-Mar-2015 10:54am EST

 
Temperature: 1°F , -17°C
Barometer: 30.25 inHg , 1024.4 hPa
2015/03/02 15:54 KDMH 021554Z AUTO M17/ A3025 RMK AO1 SLP244 T1172
 
KBWI - Balto/Wash Intl, Maryland, USA
Distance from station: SSW 20mi, 33km
Updated: Mon, 02-Mar-2015 10:54am EST
Partly cloudy
Partly cloudy
 Wind from NW
Wind: NW 13 mph , 20 km/h, Gust: 26 mph , 43 km/h
Temperature: 39°F , 4°C
Wind Chill: 31°F , -1°C
Dew Point: 25°F , -4°C
Humidity: 56%
Barometer: 30.25 inHg , 1024.4 hPa
Clouds: Partly cloudy
Visibility: 10 miles , 16 km
Cloud details: Few Clouds 4400 ft
Partly cloudy 15000 ft
Partly cloudy 25000 ft
2015/03/02 15:54 KBWI 021554Z 32011G23KT 10SM FEW044 SCT150 SCT250 04/M04 A3025 RMK AO2 PK WND 31026/1504 SLP245 T00391044
KDMW - Carroll Cnty, Maryland, USA
Distance from station: WNW 30mi, 48km
Updated: Mon, 02-Mar-2015 11:15am EST
Partly cloudy
Partly cloudy
 Wind from NNW
Wind: NNW 10 mph , 17 km/h, Gust: 28 mph , 44 km/h
Temperature: 34°F , 1°C
Wind Chill: 26°F , -3°C
Dew Point: 21°F , -6°C
Humidity: 60%
Barometer: 30.25 inHg , 1024.4 hPa
Clouds: Partly cloudy
Visibility: 10 miles , 16 km
Cloud details: Partly cloudy 4100 ft
2015/03/02 16:15 KDMW 021615Z AUTO 33009G24KT 310V010 10SM SCT041 01/M06 A3025 RMK AO2
 
KNAK - Annapolis/Naval, Maryland, USA
Distance from station: S 30mi, 48km
Updated: Mon, 02-Mar-2015 10:54am EST
Few Clouds
Few Clouds
 Wind from NW
Wind: NW 14 mph , 22 km/h, Gust: 24 mph , 39 km/h
Temperature: 39°F , 4°C
Wind Chill: 31°F , -1°C
Dew Point: 25°F , -4°C
Humidity: 56%
Barometer: 30.26 inHg , 1024.7 hPa
Clouds: Few Clouds
Visibility: 10 miles , 16 km
Cloud details: Few Clouds 4100 ft
2015/03/02 15:54 KNAK 021554Z AUTO 31012G21KT 10SM FEW041 04/M04 A3026 RMK AO2 SLP248 T00441044 $
KW29 - Stevensville, Maryland, USA
Distance from station: SSE 31mi, 50km
Updated: Mon, 02-Mar-2015 11:16am EST

 Wind from NW
Wind: NW 17 mph , 28 km/h, Gust: 24 mph , 39 km/h
Temperature: 39°F , 4°C
Wind Chill: 30°F , -1°C
Dew Point: 27°F , -3°C
Humidity: 61%
Barometer: 30.26 inHg , 1024.7 hPa
Visibility: 10 miles , 16 km
2015/03/02 16:16 KW29 021616Z AUTO 31015G21KT 10SM 04/M03 A3026 RMK AO1
 
KCGS - College Park, Maryland, USA
Distance from station: SW 38mi, 61km
Updated: Mon, 02-Mar-2015 11:15am EST
Clear
Clear
 Wind from NW
Wind: NW 16 mph , 26 km/h, Gust: 25 mph , 41 km/h
Temperature: 41°F , 5°C
Wind Chill: 33°F , 1°C
Dew Point: 21°F , -6°C
Humidity: 45%
Barometer: 30.28 inHg , 1025.4 hPa
Clouds: Clear
Visibility: 10 miles , 16 km
2015/03/02 16:15 KCGS 021615Z AUTO 32014G22KT 10SM CLR 05/M06 A3028 RMK AO1
KGAI - Gaithersburg, Maryland, USA
Distance from station: WSW 40mi, 65km
Updated: Mon, 02-Mar-2015 11:15am EST
Clear
Clear
 Wind from WNW
Wind: WNW 15 mph , 24 km/h, Gust: 33 mph , 54 km/h
Temperature: 37°F , 3°C
Wind Chill: 28°F , -2°C
Dew Point: 18°F , -8°C
Humidity: 45%
Barometer: 30.29 inHg , 1025.7 hPa
Clouds: Clear
Visibility: 10 miles , 16 km
2015/03/02 16:15 KGAI 021615Z AUTO 30013G29KT 10SM CLR 03/M08 A3029 RMK AO1 P0001
 
KTHV - York, Pennsylvania, USA
Distance from station: NNW 40mi, 65km
Updated: Mon, 02-Mar-2015 9:53am EST
NOT Current
Clear
Clear
 Wind from NW
Wind: NW 22 mph , 35 km/h, Gust: 31 mph , 50 km/h
Temperature: 34°F , 1°C
Wind Chill: 22°F , -6°C
Dew Point: 19°F , -7°C
Humidity: 56%
Barometer: 30.24 inHg , 1024 hPa
Clouds: Clear
Visibility: 10 miles , 16 km
2015/03/02 14:53 KTHV 021453Z AUTO 31019G27KT 10SM CLR 01/M07 A3024 RMK AO2 PK WND 29029/1440 SLP247 T00111072 51039
KFDK - Frederick, Maryland, USA
Distance from station: W 47mi, 75km
Updated: Mon, 02-Mar-2015 10:45am EST
Clear
Clear
 Wind from NNW
Wind: NNW 17 mph , 28 km/h, Gust: 24 mph , 39 km/h
Temperature: 39°F , 4°C
Wind Chill: 30°F , -1°C
Dew Point: 16°F , -9°C
Humidity: 39%
Barometer: 30.31 inHg , 1026.4 hPa
Clouds: Clear
Visibility: 10 miles , 16 km
2015/03/02 15:45 KFDK 021545Z 34015G21KT 10SM SKC 04/M09 A3031
 
KESN - Easton/Newnam, Maryland, USA
Distance from station: SSE 48mi, 78km
Updated: Mon, 02-Mar-2015 10:55am EST
Few Clouds
Few Clouds
 Wind from SW
Wind: SW 17 mph , 28 km/h, Gust: 29 mph , 46 km/h
Temperature: 43°F , 6°C
Wind Chill: 35°F , 2°C
Dew Point: 34°F , 1°C
Humidity: 71%
Barometer: 30.29 inHg , 1025.7 hPa
Clouds: Few Clouds
Visibility: 10 miles , 16 km
Cloud details: Few Clouds 5000 ft
2015/03/02 15:55 KESN 021555Z 23015G25KT 10SM FEW050 06/01 A3029
KDCA - Washington/Natl, Washington D.c., USA
Distance from station: SW 49mi, 79km
Updated: Mon, 02-Mar-2015 10:52am EST
Partly cloudy
Partly cloudy
 Wind from NNW
Wind: NNW 14 mph , 22 km/h
Temperature: 43°F , 6°C
Wind Chill: 36°F , 2°C
Dew Point: 30°F , -1°C
Humidity: 61%
Barometer: 30.28 inHg , 1025.4 hPa
Clouds: Partly cloudy
Visibility: 10 miles , 16 km
Cloud details: Partly cloudy 4500 ft
Partly cloudy 25000 ft
2015/03/02 15:52 KDCA 021552Z 34012KT 10SM SCT045 SCT250 06/M01 A3028 RMK AO2 SLP254 T00611011
 
KLNS - Lancaster, Pennsylvania, USA
Distance from station: N 49mi, 79km
Updated: Mon, 02-Mar-2015 10:53am EST
Few Clouds
Few Clouds
 Wind from NW
Wind: NW 21 mph , 33 km/h, Gust: 33 mph , 54 km/h
Temperature: 34°F , 1°C
Wind Chill: 22°F , -6°C
Dew Point: 18°F , -8°C
Humidity: 51%
Barometer: 30.24 inHg , 1024 hPa
Clouds: Few Clouds
Visibility: 10 miles , 16 km
Cloud details: Few Clouds 3800 ft
2015/03/02 15:53 KLNS 021553Z 31018G29KT 10SM FEW038 01/M08 A3024 RMK AO2 PK WND 32032/1543 SLP243 T00061083
KILG - Wilmington, Delaware, USA
Distance from station: ENE 50mi, 81km
Updated: Mon, 02-Mar-2015 10:51am EST
Mostly cloudy
Mostly cloudy
 Wind from NW
Wind: NW 20 mph , 31 km/h, Gust: 28 mph , 44 km/h
Temperature: 37°F , 3°C
Wind Chill: 27°F , -3°C
Dew Point: 28°F , -2°C
Humidity: 70%
Barometer: 30.24 inHg , 1024 hPa
Clouds: Mostly cloudy
Visibility: 8 miles , 13 km
Cloud details: Mostly cloudy 4100 ft
2015/03/02 15:51 KILG 021551Z 31017G24KT 8SM BKN041 03/M02 A3024 RMK AO2 SLP240 T00331022